Time,TemperatureF,DewpointF,PressureIn,WindDirection,WindDirectionDegrees,WindSpeedMPH,WindSpeedGustMPH,Humidity,HourlyPrecipIn,Conditions,Clouds,dailyrainin,SoftwareType,DateUTC
2017-07-26 00:00:00,59.4,24.5,30.19,NNW,341,3.6,6.7,26,0.00,,---,0.00,VWS V15.00,2017-07-26 04:00:00,
2017-07-26 00:05:00,59.5,24.6,30.19,NNW,334,6.3,6.3,26,0.00,,---,0.00,VWS V15.00,2017-07-26 04:05:00,
2017-07-26 00:10:00,59.4,24.5,30.19,NNW,335,5.8,6.9,26,0.00,,---,0.00,VWS V15.00,2017-07-26 04:10:00,
2017-07-26 00:15:00,59.4,24.5,30.19,NNW,331,7.8,7.8,26,0.00,,---,0.00,VWS V15.00,2017-07-26 04:15:00,
2017-07-26 00:20:00,59.5,24.6,30.19,NW,319,8.3,8.3,26,0.00,,---,0.00,VWS V15.00,2017-07-26 04:20:00,
2017-07-26 00:25:00,59.5,24.6,30.19,NNW,328,5.8,6.3,26,0.00,,---,0.00,VWS V15.00,2017-07-26 04:25:00,
2017-07-26 00:30:00,59.5,24.6,30.19,NW,307,6.7,8.7,26,0.00,,---,0.00,VWS V15.00,2017-07-26 04:30:00,
2017-07-26 00:31:00,59.5,24.6,30.19,NNW,346,6.7,6.9,26,0.00,,---,0.00,VWS V15.00,2017-07-26 04:31:00,
2017-07-26 00:36:00,59.5,24.6,30.19,NW,321,4.0,5.8,26,0.00,,---,0.00,VWS V15.00,2017-07-26 04:36:00,
2017-07-26 00:41:00,59.7,24.8,30.19,NW,307,7.4,8.7,26,0.00,,---,0.00,VWS V15.00,2017-07-26 04:41:00,
2017-07-26 00:46:00,59.7,24.8,30.19,NNW,327,7.4,7.4,26,0.00,,---,0.00,VWS V15.00,2017-07-26 04:46:00,
2017-07-26 00:51:00,59.7,24.8,30.19,North,356,3.1,4.9,26,0.00,,---,0.00,VWS V15.00,2017-07-26 04:51:00,
2017-07-26 00:56:00,59.7,24.8,30.16,NNW,334,7.4,7.4,26,0.00,,---,0.00,VWS V15.00,2017-07-26 04:56:00,
2017-07-26 01:01:00,59.7,24.8,30.16,North,351,6.3,8.7,26,0.00,,---,0.00,VWS V15.00,2017-07-26 05:01:00,
2017-07-26 01:06:00,59.7,24.8,30.16,NNW,331,5.4,6.7,26,0.00,,---,0.00,VWS V15.00,2017-07-26 05:06:00,
2017-07-26 01:11:00,59.7,24.8,30.19,NNW,346,4.9,4.9,26,0.00,,---,0.00,VWS V15.00,2017-07-26 05:11:00,
2017-07-26 01:16:00,59.5,24.6,30.19,West,274,5.4,5.4,26,0.00,,---,0.00,VWS V15.00,2017-07-26 05:16:00,
2017-07-26 01:21:00,59.5,24.6,30.19,WNW,295,5.4,7.4,26,0.00,,---,0.00,VWS V15.00,2017-07-26 05:21:00,
2017-07-26 01:26:00,59.7,24.8,30.19,North,351,8.7,8.7,26,0.00,,---,0.00,VWS V15.00,2017-07-26 05:26:00,
2017-07-26 01:31:00,59.7,24.8,30.19,NNW,334,0.0,3.1,26,0.00,,---,0.00,VWS V15.00,2017-07-26 05:31:00,
2017-07-26 01:36:00,59.7,24.8,30.19,NNW,339,9.2,9.6,26,0.00,,---,0.00,VWS V15.00,2017-07-26 05:36:00,
2017-07-26 01:41:00,59.9,25.0,30.19,North,351,8.3,8.3,26,0.00,,---,0.00,VWS V15.00,2017-07-26 05:41:00,
2017-07-26 01:46:00,59.9,25.0,30.19,North,351,6.7,6.7,26,0.00,,---,0.00,VWS V15.00,2017-07-26 05:46:00,
2017-07-26 01:51:00,59.7,24.8,30.19,North,11,6.7,6.7,26,0.00,,---,0.00,VWS V15.00,2017-07-26 05:51:00,
2017-07-26 01:56:00,59.9,25.0,30.16,NNE,17,6.7,6.9,26,0.00,,---,0.00,VWS V15.00,2017-07-26 05:56:00,
2017-07-26 02:01:00,59.9,25.0,30.16,NNW,339,5.4,6.3,26,0.00,,---,0.00,VWS V15.00,2017-07-26 06:01:00,
2017-07-26 02:06:00,59.7,24.8,30.16,North,351,6.3,7.8,26,0.00,,---,0.00,VWS V15.00,2017-07-26 06:06:00,
2017-07-26 02:11:00,59.7,24.8,30.19,NW,325,8.3,8.3,26,0.00,,---,0.00,VWS V15.00,2017-07-26 06:11:00,
2017-07-26 02:16:00,59.7,24.8,30.19,North,351,0.0,4.9,26,0.00,,---,0.00,VWS V15.00,2017-07-26 06:16:00,
2017-07-26 02:21:00,59.9,25.0,30.19,North,351,6.3,6.9,26,0.00,,---,0.00,VWS V15.00,2017-07-26 06:21:00,
2017-07-26 02:26:00,60.1,24.2,30.16,NNW,339,6.9,9.2,25,0.00,,---,0.00,VWS V15.00,2017-07-26 06:26:00,
2017-07-26 02:31:00,60.3,24.3,30.16,NW,307,7.4,7.4,25,0.00,,---,0.00,VWS V15.00,2017-07-26 06:31:00,
2017-07-26 02:36:00,60.4,24.5,30.16,NNW,337,7.8,8.3,25,0.00,,---,0.00,VWS V15.00,2017-07-26 06:36:00,
2017-07-26 02:41:00,60.3,24.3,30.16,North,351,8.3,9.2,25,0.00,,---,0.00,VWS V15.00,2017-07-26 06:41:00,
2017-07-26 02:46:00,60.3,24.3,30.16,NNW,345,8.3,9.2,25,0.00,,---,0.00,VWS V15.00,2017-07-26 06:46:00,
2017-07-26 02:51:00,60.3,24.3,30.16,North,351,9.2,10.1,25,0.00,,---,0.00,VWS V15.00,2017-07-26 06:51:00,
2017-07-26 02:56:00,60.3,24.3,30.16,NNW,338,11.0,11.0,25,0.00,,---,0.00,VWS V15.00,2017-07-26 06:56:00,
2017-07-26 03:01:00,60.6,24.6,30.16,North,0,6.3,6.3,25,0.00,,---,0.00,VWS V15.00,2017-07-26 07:01:00,
2017-07-26 03:06:00,60.6,24.6,30.16,NNW,336,5.8,11.2,25,0.00,,---,0.00,VWS V15.00,2017-07-26 07:06:00,
2017-07-26 03:11:00,60.4,24.5,30.19,NW,324,4.9,10.1,25,0.00,,---,0.00,VWS V15.00,2017-07-26 07:11:00,
2017-07-26 03:16:00,60.6,24.6,30.19,North,11,6.7,8.3,25,0.00,,---,0.00,VWS V15.00,2017-07-26 07:16:00,
2017-07-26 03:21:00,60.4,24.5,30.19,NNW,339,5.8,5.8,25,0.00,,---,0.00,VWS V15.00,2017-07-26 07:21:00,
2017-07-26 03:26:00,60.3,24.3,30.16,North,351,9.2,9.2,25,0.00,,---,0.00,VWS V15.00,2017-07-26 07:26:00,
2017-07-26 03:31:00,60.1,24.2,30.16,NNW,342,8.7,8.7,25,0.00,,---,0.00,VWS V15.00,2017-07-26 07:31:00,
2017-07-26 03:36:00,60.1,24.2,30.16,North,356,7.8,10.1,25,0.00,,---,0.00,VWS V15.00,2017-07-26 07:36:00,
2017-07-26 03:41:00,60.1,24.2,30.16,North,356,7.4,9.6,25,0.00,,---,0.00,VWS V15.00,2017-07-26 07:41:00,
2017-07-26 03:46:00,60.1,24.2,30.16,NNW,347,8.7,9.2,25,0.00,,---,0.00,VWS V15.00,2017-07-26 07:46:00,
2017-07-26 03:51:00,60.1,24.2,30.16,SE,141,8.3,9.2,25,0.00,,---,0.00,VWS V15.00,2017-07-26 07:51:00,
2017-07-26 03:56:00,60.1,24.2,30.16,North,4,7.4,9.2,25,0.00,,---,0.00,VWS V15.00,2017-07-26 07:56:00,
2017-07-26 04:01:00,60.1,24.2,30.16,North,5,5.8,6.9,25,0.00,,---,0.00,VWS V15.00,2017-07-26 08:01:00,
2017-07-26 04:06:00,60.1,24.2,30.16,NNW,338,4.0,5.4,25,0.00,,---,0.00,VWS V15.00,2017-07-26 08:06:00,
2017-07-26 04:11:00,59.7,23.9,30.19,NW,323,4.5,6.3,25,0.00,,---,0.00,VWS V15.00,2017-07-26 08:11:00,
2017-07-26 04:15:00,59.5,23.7,30.19,NW,318,3.1,6.9,25,0.00,,---,0.00,VWS V15.00,2017-07-26 08:15:00,
2017-07-26 04:20:00,59.7,23.9,30.19,NW,316,4.0,5.4,25,0.00,,---,0.00,VWS V15.00,2017-07-26 08:20:00,
2017-07-26 04:25:00,59.4,24.5,30.19,NNW,327,4.0,5.4,26,0.00,,---,0.00,VWS V15.00,2017-07-26 08:25:00,
2017-07-26 04:30:00,59.0,24.2,30.19,North,1,2.7,4.9,26,0.00,,---,0.00,VWS V15.00,2017-07-26 08:30:00,
2017-07-26 04:35:00,58.8,24.0,30.19,NW,323,5.4,5.4,26,0.00,,---,0.00,VWS V15.00,2017-07-26 08:35:00,
2017-07-26 04:40:00,58.8,24.9,30.19,NW,325,5.4,5.4,27,0.00,,---,0.00,VWS V15.00,2017-07-26 08:40:00,
2017-07-26 04:45:00,58.8,24.9,30.19,NW,319,4.0,4.9,27,0.00,,---,0.00,VWS V15.00,2017-07-26 08:45:00,
2017-07-26 04:50:00,58.5,24.6,30.19,NNW,338,4.0,4.5,27,0.00,,---,0.00,VWS V15.00,2017-07-26 08:50:00,
2017-07-26 04:55:00,58.3,24.5,30.19,NNW,335,4.0,4.5,27,0.00,,---,0.00,VWS V15.00,2017-07-26 08:55:00,
2017-07-26 05:00:00,58.3,25.3,30.19,North,351,5.8,5.8,28,0.00,,---,0.00,VWS V15.00,2017-07-26 09:00:00,
2017-07-26 05:05:00,58.8,26.6,30.19,NW,323,3.1,4.5,29,0.00,,---,0.00,VWS V15.00,2017-07-26 09:05:00,
2017-07-26 05:10:00,58.5,25.5,30.19,NNW,327,4.5,4.9,28,0.00,,---,0.00,VWS V15.00,2017-07-26 09:10:00,
2017-07-26 05:15:00,58.5,25.5,30.19,NW,320,4.0,4.9,28,0.00,,---,0.00,VWS V15.00,2017-07-26 09:15:00,
2017-07-26 05:20:00,58.8,25.8,30.19,NW,318,4.5,5.8,28,0.00,,---,0.00,VWS V15.00,2017-07-26 09:20:00,
2017-07-26 05:25:00,58.8,24.9,30.19,North,351,2.7,5.4,27,0.00,,---,0.00,VWS V15.00,2017-07-26 09:25:00,
2017-07-26 05:30:00,58.6,25.6,30.19,NNW,343,5.4,5.4,28,0.00,,---,0.00,VWS V15.00,2017-07-26 09:30:00,
2017-07-26 05:35:00,58.8,25.8,30.19,NNW,334,3.1,4.5,28,0.00,,---,0.00,VWS V15.00,2017-07-26 09:35:00,
2017-07-26 05:40:00,59.7,25.7,30.19,North,8,4.0,8.7,27,0.00,,---,0.00,VWS V15.00,2017-07-26 09:40:00,
2017-07-26 05:45:00,60.6,25.6,30.19,NW,316,5.8,7.4,26,0.00,,---,0.00,VWS V15.00,2017-07-26 09:45:00,
2017-07-26 05:50:00,61.3,25.2,30.19,NNW,334,0.0,4.0,25,0.00,,---,0.00,VWS V15.00,2017-07-26 09:50:00,
2017-07-26 05:55:00,62.6,25.3,30.19,NNW,331,0.0,4.0,24,0.00,,---,0.00,VWS V15.00,2017-07-26 09:55:00,
2017-07-26 06:00:00,63.9,25.4,30.19,NW,318,3.1,4.9,23,0.00,,---,0.00,VWS V15.00,2017-07-26 10:00:00,
2017-07-26 06:05:00,65.1,26.4,30.19,NW,318,0.0,3.1,23,0.00,,---,0.00,VWS V15.00,2017-07-26 10:05:00,
2017-07-26 06:10:00,66.4,26.4,30.19,NW,317,0.0,0.0,22,0.00,,---,0.00,VWS V15.00,2017-07-26 10:10:00,
2017-07-26 06:15:00,67.3,27.2,30.19,NW,317,0.0,0.0,22,0.00,,---,0.00,VWS V15.00,2017-07-26 10:15:00,
2017-07-26 06:20:00,68.2,25.6,30.19,NW,317,0.0,0.0,20,0.00,,---,0.00,VWS V15.00,2017-07-26 10:20:00,
2017-07-26 06:25:00,68.5,25.9,30.19,NW,323,3.1,3.1,20,0.00,,---,0.00,VWS V15.00,2017-07-26 10:25:00,
2017-07-26 06:30:00,69.3,25.3,30.19,NNW,338,4.5,4.5,19,0.00,,---,0.00,VWS V15.00,2017-07-26 10:30:00,
2017-07-26 06:35:00,66.0,26.1,30.19,NW,321,4.9,4.9,22,0.00,,---,0.00,VWS V15.00,2017-07-26 10:35:00,
2017-07-26 06:40:00,68.4,25.8,30.19,NNW,333,2.7,2.7,20,0.00,,---,0.00,VWS V15.00,2017-07-26 10:40:00,
2017-07-26 06:45:00,69.4,25.4,30.19,NNW,341,3.6,3.6,19,0.00,,---,0.00,VWS V15.00,2017-07-26 10:45:00,
2017-07-26 06:50:00,69.8,25.7,30.19,North,351,3.6,4.5,19,0.00,,---,0.00,VWS V15.00,2017-07-26 10:50:00,
2017-07-26 06:55:00,70.2,26.0,30.19,NNW,341,4.5,4.9,19,0.00,,---,0.00,VWS V15.00,2017-07-26 10:55:00,
2017-07-26 07:00:00,70.3,26.2,30.19,NNW,336,2.7,4.0,19,0.00,,---,0.00,VWS V15.00,2017-07-26 11:00:00,
2017-07-26 07:05:00,70.2,23.4,30.19,NW,324,5.8,6.9,17,0.00,,---,0.00,VWS V15.00,2017-07-26 11:05:00,
2017-07-26 07:10:00,70.9,26.6,30.19,North,351,5.4,5.8,19,0.00,,---,0.00,VWS V15.00,2017-07-26 11:10:00,
2017-07-26 07:15:00,71.1,22.6,30.19,NNW,336,4.0,4.5,16,0.00,,---,0.00,VWS V15.00,2017-07-26 11:15:00,
2017-07-26 07:20:00,71.4,22.9,30.19,NNW,347,3.6,4.9,16,0.00,,---,0.00,VWS V15.00,2017-07-26 11:20:00,
2017-07-26 07:25:00,71.4,22.9,30.22,North,351,5.8,5.8,16,0.00,,---,0.00,VWS V15.00,2017-07-26 11:25:00,
2017-07-26 07:30:00,71.2,22.8,30.22,North,351,4.9,6.9,16,0.00,,---,0.00,VWS V15.00,2017-07-26 11:30:00,
2017-07-26 07:35:00,71.1,22.6,30.22,North,351,6.7,6.9,16,0.00,,---,0.00,VWS V15.00,2017-07-26 11:35:00,
2017-07-26 07:40:00,69.4,22.8,30.22,NNW,341,6.3,8.3,17,0.00,,---,0.00,VWS V15.00,2017-07-26 11:40:00,
2017-07-26 07:45:00,70.0,23.2,30.22,North,351,0.0,6.9,17,0.00,,---,0.00,VWS V15.00,2017-07-26 11:45:00,
2017-07-26 07:50:00,70.0,23.2,30.22,North,351,6.7,8.3,17,0.00,,---,0.00,VWS V15.00,2017-07-26 11:50:00,
2017-07-26 07:55:00,71.1,22.6,30.22,North,351,6.7,7.4,16,0.00,,---,0.00,VWS V15.00,2017-07-26 11:55:00,
2017-07-26 08:00:00,71.2,22.8,30.22,North,351,6.9,6.9,16,0.00,,---,0.00,VWS V15.00,2017-07-26 12:00:00,
2017-07-26 08:05:00,71.4,22.9,30.22,NNW,342,6.9,6.9,16,0.00,,---,0.00,VWS V15.00,2017-07-26 12:05:00,
2017-07-26 08:10:00,72.7,23.9,30.22,North,9,9.2,9.2,16,0.00,,---,0.00,VWS V15.00,2017-07-26 12:10:00,
2017-07-26 08:15:00,71.8,23.2,30.22,NNE,13,5.8,6.7,16,0.00,,---,0.00,VWS V15.00,2017-07-26 12:15:00,
2017-07-26 08:20:00,71.8,23.2,30.22,NNW,333,6.7,9.2,16,0.00,,---,0.00,VWS V15.00,2017-07-26 12:20:00,
2017-07-26 08:25:00,71.1,22.6,30.22,North,7,4.9,5.8,16,0.00,,---,0.00,VWS V15.00,2017-07-26 12:25:00,
2017-07-26 08:30:00,69.1,22.5,30.22,NNW,328,5.8,7.4,17,0.00,,---,0.00,VWS V15.00,2017-07-26 12:30:00,
2017-07-26 08:35:00,69.3,22.6,30.22,North,8,4.9,4.9,17,0.00,,---,0.00,VWS V15.00,2017-07-26 12:35:00,
2017-07-26 08:40:00,69.4,22.8,30.22,NW,319,4.9,6.3,17,0.00,,---,0.00,VWS V15.00,2017-07-26 12:40:00,
2017-07-26 08:45:00,69.4,22.8,30.22,NNE,27,5.8,6.7,17,0.00,,---,0.00,VWS V15.00,2017-07-26 12:45:00,
2017-07-26 08:50:00,69.3,22.6,30.22,North,351,0.0,5.8,17,0.00,,---,0.00,VWS V15.00,2017-07-26 12:50:00,
2017-07-26 08:55:00,69.3,22.6,30.22,NNW,340,4.0,4.9,17,0.00,,---,0.00,VWS V15.00,2017-07-26 12:55:00,
2017-07-26 09:00:00,69.6,22.9,30.22,NNE,15,5.8,6.9,17,0.00,,---,0.00,VWS V15.00,2017-07-26 13:00:00,
2017-07-26 09:05:00,70.2,23.4,30.22,NNE,30,5.4,5.8,17,0.00,,---,0.00,VWS V15.00,2017-07-26 13:05:00,
2017-07-26 09:10:00,70.3,23.5,30.22,North,9,5.4,6.3,17,0.00,,---,0.00,VWS V15.00,2017-07-26 13:10:00,
2017-07-26 09:15:00,70.3,23.5,30.22,North,1,7.4,7.4,17,0.00,,---,0.00,VWS V15.00,2017-07-26 13:15:00,
2017-07-26 09:20:00,70.5,23.6,30.22,North,4,6.7,6.9,17,0.00,,---,0.00,VWS V15.00,2017-07-26 13:20:00,
2017-07-26 09:25:00,70.5,23.6,30.22,North,7,6.9,7.4,17,0.00,,---,0.00,VWS V15.00,2017-07-26 13:25:00,
2017-07-26 09:30:00,70.7,22.3,30.22,NW,312,4.5,4.5,16,0.00,,---,0.00,VWS V15.00,2017-07-26 13:30:00,
2017-07-26 09:35:00,71.1,22.6,30.22,NNE,26,6.3,6.9,16,0.00,,---,0.00,VWS V15.00,2017-07-26 13:35:00,
2017-07-26 09:40:00,71.6,23.1,30.22,North,351,4.0,4.9,16,0.00,,---,0.00,VWS V15.00,2017-07-26 13:40:00,
2017-07-26 09:45:00,72.1,23.5,30.22,NNE,27,5.4,6.3,16,0.00,,---,0.00,VWS V15.00,2017-07-26 13:45:00,
2017-07-26 09:50:00,72.1,23.5,30.22,ENE,61,3.1,4.5,16,0.00,,---,0.00,VWS V15.00,2017-07-26 13:50:00,
2017-07-26 09:55:00,72.3,23.6,30.22,North,10,4.0,4.9,16,0.00,,---,0.00,VWS V15.00,2017-07-26 13:55:00,
2017-07-26 10:00:00,72.5,23.8,30.22,NNE,32,3.1,5.8,16,0.00,,---,0.00,VWS V15.00,2017-07-26 14:00:00,
2017-07-26 10:05:00,72.9,24.1,30.22,NE,39,6.3,6.7,16,0.00,,---,0.00,VWS V15.00,2017-07-26 14:05:00,
2017-07-26 10:10:00,73.2,24.4,30.22,NE,47,9.2,9.2,16,0.00,,---,0.00,VWS V15.00,2017-07-26 14:10:00,
2017-07-26 10:15:00,73.2,24.4,30.22,NNW,335,0.0,0.0,16,0.00,,---,0.00,VWS V15.00,2017-07-26 14:15:00,
2017-07-26 10:20:00,73.4,24.5,30.22,ENE,59,6.7,6.9,16,0.00,,---,0.00,VWS V15.00,2017-07-26 14:20:00,
2017-07-26 10:25:00,73.2,24.4,30.22,NW,315,0.0,4.9,16,0.00,,---,0.00,VWS V15.00,2017-07-26 14:25:00,
2017-07-26 10:30:00,73.9,25.0,30.22,NE,36,6.7,7.8,16,0.00,,---,0.00,VWS V15.00,2017-07-26 14:30:00,
2017-07-26 10:35:00,74.3,23.7,30.22,North,8,4.0,4.9,15,0.00,,---,0.00,VWS V15.00,2017-07-26 14:35:00,
2017-07-26 10:40:00,75.4,24.6,30.22,NE,41,0.0,0.0,15,0.00,,---,0.00,VWS V15.00,2017-07-26 14:40:00,
2017-07-26 10:45:00,75.2,24.4,30.22,NNE,25,9.2,9.2,15,0.00,,---,0.00,VWS V15.00,2017-07-26 14:45:00,
2017-07-26 10:50:00,75.2,24.4,30.22,North,351,4.9,4.9,15,0.00,,---,0.00,VWS V15.00,2017-07-26 14:50:00,
2017-07-26 10:55:00,74.7,24.0,30.22,North,351,5.8,7.4,15,0.00,,---,0.00,VWS V15.00,2017-07-26 14:55:00,
2017-07-26 11:00:00,74.7,24.0,30.22,NNE,28,5.4,6.3,15,0.00,,---,0.00,VWS V15.00,2017-07-26 15:00:00,
2017-07-26 11:05:00,75.2,24.4,30.22,NE,54,3.1,3.6,15,0.00,,---,0.00,VWS V15.00,2017-07-26 15:05:00,
2017-07-26 11:10:00,75.0,24.3,30.22,North,351,3.6,4.9,15,0.00,,---,0.00,VWS V15.00,2017-07-26 15:10:00,
2017-07-26 11:15:00,75.2,21.0,30.22,WNW,300,0.0,3.1,13,0.00,,---,0.00,VWS V15.00,2017-07-26 15:15:00,
2017-07-26 11:20:00,75.4,21.2,30.22,North,351,0.0,0.0,13,0.00,,---,0.00,VWS V15.00,2017-07-26 15:20:00,
2017-07-26 11:25:00,75.2,24.4,30.22,NW,320,0.0,0.0,15,0.00,,---,0.00,VWS V15.00,2017-07-26 15:25:00,
2017-07-26 11:30:00,75.7,24.9,30.22,NE,43,4.0,4.0,15,0.00,,---,0.00,VWS V15.00,2017-07-26 15:30:00,
2017-07-26 11:35:00,75.7,24.9,30.22,NW,307,3.6,4.5,15,0.00,,---,0.00,VWS V15.00,2017-07-26 15:35:00,
2017-07-26 11:40:00,76.8,25.7,30.19,SSW,200,7.4,7.8,15,0.00,,---,0.00,VWS V15.00,2017-07-26 15:40:00,
2017-07-26 11:45:00,79.3,27.7,30.19,SSW,202,6.9,6.9,15,0.00,,---,0.00,VWS V15.00,2017-07-26 15:45:00,
2017-07-26 11:50:00,80.1,26.6,30.19,SE,146,7.8,7.8,14,0.00,,---,0.00,VWS V15.00,2017-07-26 15:50:00,
2017-07-26 11:55:00,81.0,27.3,30.19,SE,136,6.9,8.3,14,0.00,,---,0.00,VWS V15.00,2017-07-26 15:55:00,
2017-07-26 12:00:00,81.3,27.6,30.19,South,181,6.3,6.7,14,0.00,,---,0.00,VWS V15.00,2017-07-26 16:00:00,
2017-07-26 12:05:00,81.1,27.5,30.19,SSE,153,5.8,6.9,14,0.00,,---,0.00,VWS V15.00,2017-07-26 16:05:00,
2017-07-26 12:10:00,81.7,27.9,30.19,South,190,4.5,4.5,14,0.00,,---,0.00,VWS V15.00,2017-07-26 16:10:00,
2017-07-26 12:15:00,82.2,28.3,30.19,SE,135,2.7,2.7,14,0.00,,---,0.00,VWS V15.00,2017-07-26 16:15:00,
2017-07-26 12:20:00,81.9,28.0,30.19,South,181,6.7,11.6,14,0.00,,---,0.00,VWS V15.00,2017-07-26 16:20:00,
2017-07-26 12:25:00,82.2,28.3,30.19,South,179,0.0,5.8,14,0.00,,---,0.00,VWS V15.00,2017-07-26 16:25:00,
2017-07-26 12:30:00,82.2,28.3,30.19,South,176,10.1,10.1,14,0.00,,---,0.00,VWS V15.00,2017-07-26 16:30:00,
2017-07-26 12:35:00,81.3,27.6,30.19,South,172,6.9,6.9,14,0.00,,---,0.00,VWS V15.00,2017-07-26 16:35:00,
2017-07-26 12:40:00,77.4,26.1,30.19,South,177,5.4,8.7,15,0.00,,---,0.00,VWS V15.00,2017-07-26 16:40:00,
2017-07-26 12:44:00,79.5,27.9,30.19,South,173,4.5,6.7,15,0.00,,---,0.00,VWS V15.00,2017-07-26 16:44:00,
2017-07-26 12:49:00,81.3,27.6,30.19,SSE,151,7.8,9.6,14,0.00,,---,0.00,VWS V15.00,2017-07-26 16:49:00,
2017-07-26 12:54:00,82.0,28.2,30.19,SSE,166,4.9,9.6,14,0.00,,---,0.00,VWS V15.00,2017-07-26 16:54:00,
2017-07-26 12:59:00,82.4,28.5,30.19,SSE,152,8.3,10.1,14,0.00,,---,0.00,VWS V15.00,2017-07-26 16:59:00,
2017-07-26 13:04:00,82.4,28.5,30.19,SW,226,8.3,10.1,14,0.00,,---,0.00,VWS V15.00,2017-07-26 17:04:00,
2017-07-26 13:09:00,82.8,28.8,30.19,South,173,7.8,7.8,14,0.00,,---,0.00,VWS V15.00,2017-07-26 17:09:00,
2017-07-26 13:14:00,82.6,28.6,30.19,SSE,165,8.3,8.3,14,0.00,,---,0.00,VWS V15.00,2017-07-26 17:14:00,
2017-07-26 13:19:00,82.8,28.8,30.19,SW,227,6.9,10.1,14,0.00,,---,0.00,VWS V15.00,2017-07-26 17:19:00,
2017-07-26 13:24:00,82.4,28.5,30.19,SSE,149,5.4,8.7,14,0.00,,---,0.00,VWS V15.00,2017-07-26 17:24:00,
2017-07-26 13:29:00,82.4,28.5,30.19,SSE,157,4.5,9.2,14,0.00,,---,0.00,VWS V15.00,2017-07-26 17:29:00,
2017-07-26 13:34:00,82.2,28.3,30.19,South,185,5.8,10.5,14,0.00,,---,0.00,VWS V15.00,2017-07-26 17:34:00,
2017-07-26 13:39:00,82.2,28.3,30.19,South,176,7.4,11.0,14,0.00,,---,0.00,VWS V15.00,2017-07-26 17:39:00,
2017-07-26 13:44:00,82.2,22.5,30.19,South,184,6.7,9.6,11,0.00,,---,0.00,VWS V15.00,2017-07-26 17:44:00,
2017-07-26 13:49:00,81.9,28.0,30.19,SSW,209,8.7,10.1,14,0.00,,---,0.00,VWS V15.00,2017-07-26 17:49:00,
2017-07-26 13:54:00,81.7,22.1,30.19,South,180,8.7,9.6,11,0.00,,---,0.00,VWS V15.00,2017-07-26 17:54:00,
2017-07-26 13:59:00,81.9,22.2,30.19,SSE,148,9.2,10.5,11,0.00,,---,0.00,VWS V15.00,2017-07-26 17:59:00,
2017-07-26 14:04:00,81.3,23.9,30.19,SSW,212,6.9,10.5,12,0.00,,---,0.00,VWS V15.00,2017-07-26 18:04:00,
2017-07-26 14:09:00,81.1,23.8,30.19,South,185,8.3,8.3,12,0.00,,---,0.00,VWS V15.00,2017-07-26 18:09:00,
2017-07-26 14:14:00,81.1,23.8,30.19,SSE,158,7.8,8.7,12,0.00,,---,0.00,VWS V15.00,2017-07-26 18:14:00,
2017-07-26 14:19:00,78.3,21.5,30.19,SSW,194,5.8,8.3,12,0.00,,---,0.00,VWS V15.00,2017-07-26 18:19:00,
2017-07-26 14:24:00,79.3,22.4,30.19,SSE,164,6.3,7.4,12,0.00,,---,0.00,VWS V15.00,2017-07-26 18:24:00,
2017-07-26 14:29:00,80.4,23.2,30.19,SE,142,4.5,11.0,12,0.00,,---,0.00,VWS V15.00,2017-07-26 18:29:00,
2017-07-26 14:34:00,81.0,27.3,30.19,SE,140,4.5,7.4,14,0.00,,---,0.00,VWS V15.00,2017-07-26 18:34:00,
2017-07-26 14:39:00,81.3,23.9,30.19,South,185,6.9,9.6,12,0.00,,---,0.00,VWS V15.00,2017-07-26 18:39:00,
2017-07-26 14:44:00,81.3,23.9,30.19,South,172,5.8,9.6,12,0.00,,---,0.00,VWS V15.00,2017-07-26 18:44:00,
2017-07-26 14:49:00,81.5,24.0,30.19,SE,143,7.4,8.7,12,0.00,,---,0.00,VWS V15.00,2017-07-26 18:49:00,
2017-07-26 14:54:00,81.0,23.6,30.19,ESE,123,6.3,8.7,12,0.00,,---,0.00,VWS V15.00,2017-07-26 18:54:00,
2017-07-26 14:59:00,80.6,23.4,30.19,SE,137,6.3,8.3,12,0.00,,---,0.00,VWS V15.00,2017-07-26 18:59:00,
2017-07-26 15:04:00,81.0,23.6,30.19,SE,143,3.6,7.4,12,0.00,,---,0.00,VWS V15.00,2017-07-26 19:04:00,
2017-07-26 15:09:00,81.9,22.2,30.19,South,171,5.8,10.1,11,0.00,,---,0.00,VWS V15.00,2017-07-26 19:09:00,
2017-07-26 15:14:00,81.3,23.9,30.16,SSE,147,8.7,9.2,12,0.00,,---,0.00,VWS V15.00,2017-07-26 19:14:00,
2017-07-26 15:19:00,80.6,23.4,30.16,SSE,153,7.4,10.5,12,0.00,,---,0.00,VWS V15.00,2017-07-26 19:19:00,
2017-07-26 15:24:00,80.4,23.2,30.16,SSE,165,6.7,8.7,12,0.00,,---,0.00,VWS V15.00,2017-07-26 19:24:00,
2017-07-26 15:29:00,80.6,23.4,30.16,SE,129,7.8,7.8,12,0.00,,---,0.00,VWS V15.00,2017-07-26 19:29:00,
2017-07-26 15:34:00,80.1,22.9,30.16,SE,140,4.0,4.9,12,0.00,,---,0.00,VWS V15.00,2017-07-26 19:34:00,
2017-07-26 15:39:00,79.9,22.8,30.16,South,191,6.9,8.3,12,0.00,,---,0.00,VWS V15.00,2017-07-26 19:39:00,
2017-07-26 15:44:00,80.2,23.1,30.16,South,183,6.7,6.7,12,0.00,,---,0.00,VWS V15.00,2017-07-26 19:44:00,
2017-07-26 15:49:00,80.4,23.2,30.16,South,186,4.9,9.2,12,0.00,,---,0.00,VWS V15.00,2017-07-26 19:49:00,
2017-07-26 15:54:00,80.2,23.1,30.16,SSW,202,0.0,4.9,12,0.00,,---,0.00,VWS V15.00,2017-07-26 19:54:00,
2017-07-26 15:59:00,79.5,22.5,30.16,South,169,6.3,10.5,12,0.00,,---,0.00,VWS V15.00,2017-07-26 19:59:00,
2017-07-26 16:04:00,78.6,21.8,30.16,SSE,156,7.4,7.4,12,0.00,,---,0.00,VWS V15.00,2017-07-26 20:04:00,
2017-07-26 16:09:00,78.1,21.4,30.16,SE,142,8.3,10.1,12,0.00,,---,0.00,VWS V15.00,2017-07-26 20:09:00,
2017-07-26 16:14:00,77.9,23.1,30.16,SSW,193,7.8,7.8,13,0.00,,---,0.00,VWS V15.00,2017-07-26 20:14:00,
2017-07-26 16:19:00,78.1,21.4,30.16,South,171,4.9,5.4,12,0.00,,---,0.00,VWS V15.00,2017-07-26 20:19:00,
2017-07-26 16:24:00,78.3,21.5,30.16,SSE,165,7.8,8.7,12,0.00,,---,0.00,VWS V15.00,2017-07-26 20:24:00,
2017-07-26 16:29:00,78.1,21.4,30.16,ESE,111,0.0,6.3,12,0.00,,---,0.00,VWS V15.00,2017-07-26 20:29:00,
2017-07-26 16:34:00,75.9,21.6,30.16,South,181,6.9,7.8,13,0.00,,---,0.00,VWS V15.00,2017-07-26 20:34:00,
2017-07-26 16:39:00,76.8,22.3,30.16,SSE,157,6.9,8.3,13,0.00,,---,0.00,VWS V15.00,2017-07-26 20:39:00,
2017-07-26 16:44:00,77.2,22.6,30.16,South,174,6.9,9.2,13,0.00,,---,0.00,VWS V15.00,2017-07-26 20:44:00,
2017-07-26 16:49:00,77.4,22.7,30.16,SSE,161,3.6,5.4,13,0.00,,---,0.00,VWS V15.00,2017-07-26 20:49:00,
2017-07-26 16:54:00,77.4,22.7,30.16,SSE,168,6.7,7.8,13,0.00,,---,0.00,VWS V15.00,2017-07-26 20:54:00,
2017-07-26 16:59:00,77.4,22.7,30.16,SSW,194,5.8,6.3,13,0.00,,---,0.00,VWS V15.00,2017-07-26 20:59:00,
2017-07-26 17:04:00,77.2,22.6,30.16,SSW,196,7.8,9.6,13,0.00,,---,0.00,VWS V15.00,2017-07-26 21:04:00,
2017-07-26 17:09:00,76.8,22.3,30.16,SE,130,7.4,8.3,13,0.00,,---,0.00,VWS V15.00,2017-07-26 21:09:00,
2017-07-26 17:14:00,76.1,21.7,30.16,SE,142,0.0,6.7,13,0.00,,---,0.00,VWS V15.00,2017-07-26 21:14:00,
2017-07-26 17:19:00,76.1,21.7,30.16,South,191,6.9,8.3,13,0.00,,---,0.00,VWS V15.00,2017-07-26 21:19:00,
2017-07-26 17:24:00,76.1,21.7,30.16,SSE,161,4.5,6.7,13,0.00,,---,0.00,VWS V15.00,2017-07-26 21:24:00,
2017-07-26 17:29:00,76.1,21.7,30.16,South,185,4.5,6.3,13,0.00,,---,0.00,VWS V15.00,2017-07-26 21:29:00,
2017-07-26 17:34:00,75.9,21.6,30.16,SSE,154,7.4,8.7,13,0.00,,---,0.00,VWS V15.00,2017-07-26 21:34:00,
2017-07-26 17:39:00,75.2,21.0,30.16,South,187,5.4,6.3,13,0.00,,---,0.00,VWS V15.00,2017-07-26 21:39:00,
2017-07-26 17:44:00,75.0,20.9,30.13,SSE,152,7.4,8.3,13,0.00,,---,0.00,VWS V15.00,2017-07-26 21:44:00,
2017-07-26 17:49:00,75.2,21.0,30.13,South,175,5.4,6.9,13,0.00,,---,0.00,VWS V15.00,2017-07-26 21:49:00,
2017-07-26 17:54:00,75.0,24.3,30.13,SSE,167,4.5,5.4,15,0.00,,---,0.00,VWS V15.00,2017-07-26 21:54:00,
2017-07-26 17:59:00,75.2,21.0,30.13,South,182,6.9,6.9,13,0.00,,---,0.00,VWS V15.00,2017-07-26 21:59:00,
2017-07-26 18:04:00,75.2,21.0,30.13,SSW,195,8.3,9.6,13,0.00,,---,0.00,VWS V15.00,2017-07-26 22:04:00,
2017-07-26 18:09:00,74.8,20.7,30.13,South,190,5.8,5.8,13,0.00,,---,0.00,VWS V15.00,2017-07-26 22:09:00,
2017-07-26 18:14:00,74.1,20.2,30.13,SSE,155,8.7,8.7,13,0.00,,---,0.00,VWS V15.00,2017-07-26 22:14:00,
2017-07-26 18:19:00,73.6,19.8,30.13,South,189,5.8,8.3,13,0.00,,---,0.00,VWS V15.00,2017-07-26 22:19:00,
2017-07-26 18:24:00,76.8,25.7,30.13,SE,144,6.3,6.7,15,0.00,,---,0.00,VWS V15.00,2017-07-26 22:24:00,
2017-07-26 18:29:00,81.5,27.8,30.13,SSE,154,8.7,8.7,14,0.00,,---,0.00,VWS V15.00,2017-07-26 22:29:00,
2017-07-26 18:34:00,84.7,28.5,30.13,South,189,6.3,7.8,13,0.00,,---,0.00,VWS V15.00,2017-07-26 22:34:00,
2017-07-26 18:39:00,79.5,27.9,30.13,SW,215,6.3,8.3,15,0.00,,---,0.00,VWS V15.00,2017-07-26 22:39:00,
2017-07-26 18:44:00,82.9,23.1,30.13,SSE,167,4.9,5.4,11,0.00,,---,0.00,VWS V15.00,2017-07-26 22:44:00,
2017-07-26 18:49:00,85.8,29.4,30.13,SE,141,5.4,7.8,13,0.00,,---,0.00,VWS V15.00,2017-07-26 22:49:00,
2017-07-26 18:54:00,86.5,29.9,30.13,South,189,9.6,9.6,13,0.00,,---,0.00,VWS V15.00,2017-07-26 22:54:00,
2017-07-26 18:59:00,86.9,30.2,30.13,South,187,4.5,5.8,13,0.00,,---,0.00,VWS V15.00,2017-07-26 22:59:00,
2017-07-26 19:04:00,85.8,25.3,30.13,SSW,192,6.3,6.9,11,0.00,,---,0.00,VWS V15.00,2017-07-26 23:04:00,
2017-07-26 19:09:00,84.7,24.5,30.13,SSE,164,8.3,8.3,11,0.00,,---,0.00,VWS V15.00,2017-07-26 23:09:00,
2017-07-26 19:14:00,83.8,23.8,30.13,South,179,7.4,8.7,11,0.00,,---,0.00,VWS V15.00,2017-07-26 23:14:00,
2017-07-26 19:19:00,82.2,22.5,30.13,SSE,167,5.8,6.7,11,0.00,,---,0.00,VWS V15.00,2017-07-26 23:19:00,
2017-07-26 19:24:00,79.2,22.2,30.13,SSW,208,9.2,9.6,12,0.00,,---,0.00,VWS V15.00,2017-07-26 23:24:00,
2017-07-26 19:29:00,78.1,21.4,30.13,South,179,6.9,6.9,12,0.00,,---,0.00,VWS V15.00,2017-07-26 23:29:00,
2017-07-26 19:34:00,78.4,21.7,30.13,SSW,213,6.3,7.8,12,0.00,,---,0.00,VWS V15.00,2017-07-26 23:34:00,
2017-07-26 19:39:00,75.7,21.5,30.13,SSW,198,8.3,8.3,13,0.00,,---,0.00,VWS V15.00,2017-07-26 23:39:00,
2017-07-26 19:44:00,71.8,20.1,30.13,South,182,6.3,7.4,14,0.00,,---,0.00,VWS V15.00,2017-07-26 23:44:00,
2017-07-26 19:49:00,69.1,17.9,30.13,South,180,7.4,9.2,14,0.00,,---,0.00,VWS V15.00,2017-07-26 23:49:00,
2017-07-26 19:54:00,67.6,18.4,30.13,South,187,7.4,7.4,15,0.00,,---,0.00,VWS V15.00,2017-07-26 23:54:00,
2017-07-26 19:58:00,66.7,20.6,30.13,South,185,7.4,7.8,17,0.00,,---,0.00,VWS V15.00,2017-07-26 23:58:00,
2017-07-26 20:03:00,66.0,20.0,30.13,SSW,200,4.9,5.8,17,0.00,,---,0.00,VWS V15.00,2017-07-27 00:03:00,
2017-07-26 20:08:00,65.7,19.7,30.13,South,171,3.6,5.8,17,0.00,,---,0.00,VWS V15.00,2017-07-27 00:08:00,
2017-07-26 20:13:00,65.3,20.7,30.13,South,178,6.9,6.9,18,0.00,,---,0.00,VWS V15.00,2017-07-27 00:13:00,
2017-07-26 20:18:00,64.8,20.3,30.13,South,173,6.3,8.3,18,0.00,,---,0.00,VWS V15.00,2017-07-27 00:18:00,
2017-07-26 20:23:00,64.8,22.8,30.13,South,177,5.4,5.8,20,0.00,,---,0.00,VWS V15.00,2017-07-27 00:23:00,
2017-07-26 20:28:00,64.8,22.8,30.13,SSW,193,2.7,6.9,20,0.00,,---,0.00,VWS V15.00,2017-07-27 00:28:00,
2017-07-26 20:33:00,64.6,26.0,30.13,SW,224,5.4,6.7,23,0.00,,---,0.00,VWS V15.00,2017-07-27 00:33:00,
2017-07-26 20:38:00,64.6,26.0,30.13,SW,215,5.8,5.8,23,0.00,,---,0.00,VWS V15.00,2017-07-27 00:38:00,
2017-07-26 20:43:00,64.4,25.8,30.13,SSW,200,4.5,6.3,23,0.00,,---,0.00,VWS V15.00,2017-07-27 00:43:00,
2017-07-26 20:48:00,64.2,25.7,30.13,SSW,197,4.5,6.3,23,0.00,,---,0.00,VWS V15.00,2017-07-27 00:48:00,
2017-07-26 20:53:00,64.4,25.8,30.13,South,179,3.6,6.9,23,0.00,,---,0.00,VWS V15.00,2017-07-27 00:53:00,
2017-07-26 20:58:00,64.2,25.7,30.13,SSW,201,6.7,7.8,23,0.00,,---,0.00,VWS V15.00,2017-07-27 00:58:00,
2017-07-26 21:03:00,64.2,25.7,30.13,SSE,165,4.5,8.3,23,0.00,,---,0.00,VWS V15.00,2017-07-27 01:03:00,
2017-07-26 21:08:00,64.2,25.7,30.13,SSW,205,6.9,8.3,23,0.00,,---,0.00,VWS V15.00,2017-07-27 01:08:00,
2017-07-26 21:13:00,64.0,25.5,30.16,SSW,203,4.9,6.9,23,0.00,,---,0.00,VWS V15.00,2017-07-27 01:13:00,
2017-07-26 21:18:00,64.0,25.5,30.16,SW,214,5.8,9.2,23,0.00,,---,0.00,VWS V15.00,2017-07-27 01:18:00,
2017-07-26 21:23:00,64.0,25.5,30.16,SSW,207,4.9,7.4,23,0.00,,---,0.00,VWS V15.00,2017-07-27 01:23:00,
2017-07-26 21:28:00,64.0,25.5,30.16,SSE,167,4.0,5.8,23,0.00,,---,0.00,VWS V15.00,2017-07-27 01:28:00,
2017-07-26 21:33:00,63.9,25.4,30.16,SSW,206,4.0,6.7,23,0.00,,---,0.00,VWS V15.00,2017-07-27 01:33:00,
2017-07-26 21:38:00,63.9,25.4,30.16,SSW,195,2.7,4.9,23,0.00,,---,0.00,VWS V15.00,2017-07-27 01:38:00,
2017-07-26 21:43:00,63.7,25.2,30.16,SSE,168,0.0,4.5,23,0.00,,---,0.00,VWS V15.00,2017-07-27 01:43:00,
2017-07-26 21:48:00,63.7,25.2,30.16,SSW,203,0.0,5.8,23,0.00,,---,0.00,VWS V15.00,2017-07-27 01:48:00,
2017-07-26 21:53:00,63.7,25.2,30.16,SSE,152,7.4,9.6,23,0.00,,---,0.00,VWS V15.00,2017-07-27 01:53:00,
2017-07-26 21:58:00,63.5,25.1,30.13,South,174,3.6,3.6,23,0.00,,---,0.00,VWS V15.00,2017-07-27 01:58:00,
2017-07-26 22:03:00,63.3,24.9,30.13,SSW,199,0.0,2.7,23,0.00,,---,0.00,VWS V15.00,2017-07-27 02:03:00,
2017-07-26 22:08:00,63.7,25.2,30.13,South,178,3.1,7.4,23,0.00,,---,0.00,VWS V15.00,2017-07-27 02:08:00,
2017-07-26 22:13:00,63.7,25.2,30.13,SSW,210,6.7,8.7,23,0.00,,---,0.00,VWS V15.00,2017-07-27 02:13:00,
2017-07-26 22:18:00,63.7,25.2,30.13,SSW,201,5.8,7.8,23,0.00,,---,0.00,VWS V15.00,2017-07-27 02:18:00,
2017-07-26 22:23:00,63.5,25.1,30.13,SW,215,6.3,6.9,23,0.00,,---,0.00,VWS V15.00,2017-07-27 02:23:00,
2017-07-26 22:28:00,63.5,25.1,30.13,South,170,0.0,4.5,23,0.00,,---,0.00,VWS V15.00,2017-07-27 02:28:00,
2017-07-26 22:33:00,63.5,25.1,30.13,SSW,207,4.0,5.4,23,0.00,,---,0.00,VWS V15.00,2017-07-27 02:33:00,
2017-07-26 22:38:00,63.5,25.1,30.13,SW,215,8.7,8.7,23,0.00,,---,0.00,VWS V15.00,2017-07-27 02:38:00,
2017-07-26 22:43:00,63.5,26.1,30.13,South,184,5.8,5.8,24,0.00,,---,0.00,VWS V15.00,2017-07-27 02:43:00,
2017-07-26 22:48:00,63.1,25.8,30.13,SSW,199,4.5,5.4,24,0.00,,---,0.00,VWS V15.00,2017-07-27 02:48:00,
2017-07-26 22:53:00,63.1,25.8,30.13,SSW,205,5.8,7.4,24,0.00,,---,0.00,VWS V15.00,2017-07-27 02:53:00,
2017-07-26 22:58:00,63.1,25.8,30.13,SSW,195,4.0,6.9,24,0.00,,---,0.00,VWS V15.00,2017-07-27 02:58:00,
2017-07-26 23:03:00,63.3,25.9,30.13,SSW,194,0.0,4.9,24,0.00,,---,0.00,VWS V15.00,2017-07-27 03:03:00,
2017-07-26 23:08:00,63.3,25.9,30.13,SSW,208,4.5,7.4,24,0.00,,---,0.00,VWS V15.00,2017-07-27 03:08:00,
2017-07-26 23:13:00,63.3,25.9,30.13,SSW,198,4.9,5.4,24,0.00,,---,0.00,VWS V15.00,2017-07-27 03:13:00,
2017-07-26 23:18:00,63.1,25.8,30.13,SSW,202,5.8,8.3,24,0.00,,---,0.00,VWS V15.00,2017-07-27 03:18:00,
2017-07-26 23:23:00,63.3,25.9,30.13,SSW,196,5.4,7.4,24,0.00,,---,0.00,VWS V15.00,2017-07-27 03:23:00,
2017-07-26 23:28:00,63.3,25.9,30.13,SSW,213,5.4,8.3,24,0.00,,---,0.00,VWS V15.00,2017-07-27 03:28:00,
2017-07-26 23:33:00,63.3,25.9,30.13,SW,216,5.4,6.7,24,0.00,,---,0.00,VWS V15.00,2017-07-27 03:33:00,
2017-07-26 23:38:00,63.1,25.8,30.13,SSW,203,4.5,6.7,24,0.00,,---,0.00,VWS V15.00,2017-07-27 03:38:00,